Time;durP1;ratioP1;P1;durP2;ratioP2;P2;SDS_P1;SDS_P2;PMS_P1;PMS_P2;Temp;Humidity;BMP_temperature;BMP_pressure;BME280_temperature;BME280_humidity;BME280_pressure;Samples;Min_cycle;Max_cycle;Signal;HPM_P1;HPM_P2
2022/12/23 03:46:16;;;;;;;0.98;0.10;;;11.40;87.90;;;;;;5896477;23;88850;-72
2022/12/23 03:48:47;;;;;;;0.90;0.00;;;11.40;87.40;;;;;;4888880;28;86829;-72
2022/12/23 03:51:18;;;;;;;0.32;0.10;;;11.40;86.80;;;;;;4894870;28;86942;-72
2022/12/23 03:53:53;;;;;;;0.25;0.00;;;11.40;86.40;;;;;;4894684;28;86989;-72
2022/12/23 03:56:34;;;;;;;1.58;0.00;;;11.40;87.00;;;;;;4882261;28;87644;-72
2022/12/23 03:59:17;;;;;;;1.67;0.08;;;11.40;86.80;;;;;;4889214;28;87133;-72
2022/12/23 04:02:22;;;;;;;0.40;0.00;;;11.40;87.70;;;;;;4885129;28;86174;-72
2022/12/23 04:05:07;;;;;;;0.60;0.00;;;11.50;87.40;;;;;;4803433;29;87184;-71
2022/12/23 04:08:01;;;;;;;0.20;0.00;;;11.40;86.60;;;;;;4803019;29;86885;-71
2022/12/23 04:10:27;;;;;;;0.43;0.10;;;11.40;86.00;;;;;;4871661;28;87661;-71
2022/12/23 04:12:53;;;;;;;0.50;0.00;;;11.40;86.10;;;;;;4883146;28;87490;-72
2022/12/23 04:15:25;;;;;;;0.30;0.00;;;11.40;87.10;;;;;;4881698;28;86687;-72
2022/12/23 04:17:52;;;;;;;2.38;0.15;;;11.40;87.10;;;;;;4881221;28;86872;-72
2022/12/23 04:20:18;;;;;;;1.17;0.05;;;11.40;87.70;;;;;;4896557;28;87352;-72
2022/12/23 04:22:45;;;;;;;0.30;0.00;;;11.40;88.70;;;;;;4880156;28;87085;-72
2022/12/23 04:25:12;;;;;;;1.23;0.10;;;11.20;89.00;;;;;;4886526;28;87937;-72
2022/12/23 04:27:38;;;;;;;1.33;0.00;;;11.30;89.90;;;;;;4882419;28;85640;-72
2022/12/23 04:30:05;;;;;;;0.85;0.00;;;11.30;89.60;;;;;;4884366;28;87282;-72
2022/12/23 04:32:31;;;;;;;0.95;0.00;;;11.20;90.00;;;;;;4884440;28;87823;-72
2022/12/23 04:34:57;;;;;;;0.30;0.00;;;11.30;89.20;;;;;;4894859;28;87625;-73
2022/12/23 04:37:22;;;;;;;0.40;0.10;;;11.20;89.80;;;;;;4899072;28;86807;-72
2022/12/23 04:39:48;;;;;;;1.65;0.00;;;11.20;89.00;;;;;;4885510;28;88067;-70
2022/12/23 04:42:14;;;;;;;0.43;0.00;;;11.20;88.80;;;;;;4891439;28;86412;-71
2022/12/23 04:44:39;;;;;;;0.55;0.10;;;11.20;88.40;;;;;;4888552;28;86748;-71
2022/12/23 04:47:05;;;;;;;2.00;0.10;;;11.20;88.50;;;;;;4887449;28;88836;-71
2022/12/23 04:49:31;;;;;;;0.43;0.00;;;11.20;88.20;;;;;;4879943;28;86684;-71
2022/12/23 04:51:57;;;;;;;0.93;0.00;;;11.30;88.00;;;;;;4877713;28;86979;-71
2022/12/23 04:54:22;;;;;;;0.45;0.00;;;11.30;88.30;;;;;;4884187;28;86265;-71
2022/12/23 04:56:48;;;;;;;2.28;0.10;;;11.30;88.40;;;;;;4880714;28;86869;-70
2022/12/23 04:59:14;;;;;;;0.13;0.00;;;11.30;88.60;;;;;;4879709;28;87678;-71
2022/12/23 05:01:41;;;;;;;0.47;0.00;;;11.20;88.60;;;;;;4884439;28;87816;-70
2022/12/23 05:04:10;;;;;;;0.15;0.00;;;11.20;88.00;;;;;;4877401;28;86612;-70
2022/12/23 05:06:36;;;;;;;0.20;0.00;;;11.20;88.50;;;;;;4882108;28;88089;-71
2022/12/23 05:09:03;;;;;;;1.48;0.00;;;11.20;89.60;;;;;;4878044;28;88267;-70
2022/12/23 05:11:28;;;;;;;0.93;0.00;;;11.20;90.70;;;;;;4878512;28;87095;-70
2022/12/23 05:13:54;;;;;;;0.13;0.00;;;11.10;91.80;;;;;;4872966;28;86793;-70
2022/12/23 05:16:20;;;;;;;1.52;0.05;;;11.10;91.70;;;;;;4870204;28;86226;-70
2022/12/23 05:18:46;;;;;;;1.67;0.00;;;11.10;91.40;;;;;;4881172;28;86938;-70
2022/12/23 05:21:12;;;;;;;1.58;0.00;;;11.00;91.40;;;;;;4874351;28;86624;-70
2022/12/23 05:23:37;;;;;;;0.47;0.05;;;11.10;91.40;;;;;;4874434;28;87735;-70
2022/12/23 05:26:03;;;;;;;0.40;0.05;;;11.10;91.50;;;;;;4880848;28;86823;-70
2022/12/23 05:28:29;;;;;;;0.43;0.00;;;11.10;91.60;;;;;;4875990;28;87109;-71
2022/12/23 05:31:03;;;;;;;0.03;0.00;;;11.20;91.40;;;;;;4876870;28;87089;-70
2022/12/23 05:33:29;;;;;;;1.15;0.10;;;11.20;91.20;;;;;;4876556;28;87338;-70
2022/12/23 05:35:55;;;;;;;0.98;0.22;;;11.20;91.60;;;;;;4879161;28;86371;-70
2022/12/23 05:38:21;;;;;;;1.40;0.08;;;11.20;92.20;;;;;;4879469;28;86639;-70
2022/12/23 05:40:47;;;;;;;1.27;0.05;;;11.10;92.10;;;;;;4871068;28;86713;-70
2022/12/23 05:43:12;;;;;;;0.40;0.00;;;11.10;92.40;;;;;;4875248;28;87959;-70
2022/12/23 05:45:38;;;;;;;0.43;0.00;;;11.10;92.10;;;;;;4878460;28;86744;-70
2022/12/23 05:48:04;;;;;;;1.40;0.00;;;11.10;92.30;;;;;;4877655;28;88170;-70
2022/12/23 05:50:30;;;;;;;0.85;0.13;;;11.00;92.40;;;;;;4872862;28;88339;-70
2022/12/23 05:52:56;;;;;;;0.40;0.00;;;11.00;92.20;;;;;;4874890;28;88500;-70
2022/12/23 05:55:23;;;;;;;2.15;0.10;;;11.00;92.30;;;;;;4871524;28;86960;-70
2022/12/23 05:57:49;;;;;;;0.28;0.00;;;10.90;92.70;;;;;;4873800;28;87306;-70
2022/12/23 06:00:15;;;;;;;0.43;0.10;;;11.00;92.90;;;;;;4878452;28;86995;-71
2022/12/23 06:02:41;;;;;;;0.20;0.00;;;11.00;92.50;;;;;;4878223;28;86770;-70
2022/12/23 06:05:08;;;;;;;0.52;0.05;;;11.00;92.40;;;;;;4881777;28;85416;-71
2022/12/23 06:07:34;;;;;;;2.17;0.00;;;11.00;92.10;;;;;;4875766;28;87215;-71
2022/12/23 06:09:59;;;;;;;0.10;0.00;;;11.00;92.30;;;;;;4875818;28;87038;-71
2022/12/23 06:12:25;;;;;;;0.70;0.05;;;11.10;92.20;;;;;;4875651;28;88041;-70
2022/12/23 06:14:51;;;;;;;0.50;0.00;;;11.10;91.70;;;;;;4882006;28;88199;-70
2022/12/23 06:17:16;;;;;;;0.85;0.00;;;11.20;91.80;;;;;;4881038;28;87327;-70
2022/12/23 06:19:42;;;;;;;2.30;0.00;;;11.20;91.80;;;;;;4879423;28;86896;-71
2022/12/23 06:22:08;;;;;;;0.52;0.00;;;11.10;92.40;;;;;;4869965;28;88294;-71
2022/12/23 06:24:33;;;;;;;0.50;0.00;;;11.10;93.00;;;;;;4853435;28;86710;-71
2022/12/23 06:26:59;;;;;;;1.20;0.10;;;11.10;92.70;;;;;;4869893;28;87114;-71
2022/12/23 06:29:25;;;;;;;0.80;0.00;;;11.00;92.70;;;;;;4881792;28;86310;-71
2022/12/23 06:31:50;;;;;;;0.47;0.00;;;11.10;92.90;;;;;;4880203;28;87082;-71
2022/12/23 06:34:16;;;;;;;1.08;0.08;;;11.00;92.60;;;;;;4886239;28;86472;-71
2022/12/23 06:36:42;;;;;;;1.17;0.00;;;11.00;92.50;;;;;;4879859;28;88024;-71
2022/12/23 06:39:09;;;;;;;0.30;0.00;;;11.10;91.90;;;;;;4873285;28;87151;-71
2022/12/23 06:41:35;;;;;;;3.15;0.00;;;11.00;91.40;;;;;;4870121;28;87037;-70
2022/12/23 06:44:01;;;;;;;1.23;0.00;;;11.10;91.70;;;;;;4884276;28;86829;-71
2022/12/23 06:46:27;;;;;;;0.80;0.00;;;11.10;91.90;;;;;;4875429;28;87172;-71
2022/12/23 06:48:52;;;;;;;1.55;0.00;;;11.10;92.00;;;;;;4880363;28;87026;-71
2022/12/23 06:51:18;;;;;;;1.42;0.03;;;11.20;91.80;;;;;;4877776;28;86969;-71
2022/12/23 06:53:44;;;;;;;0.63;0.00;;;11.20;92.40;;;;;;4884454;28;85603;-71
2022/12/23 06:56:09;;;;;;;0.22;0.00;;;11.20;92.70;;;;;;4883863;28;87366;-71
2022/12/23 06:58:35;;;;;;;0.30;0.00;;;11.20;92.30;;;;;;4878678;28;86704;-71
2022/12/23 07:01:01;;;;;;;2.85;0.03;;;11.10;92.20;;;;;;4875942;28;89096;-72
2022/12/23 07:03:26;;;;;;;0.30;0.00;;;11.20;92.00;;;;;;4875174;28;86439;-71
2022/12/23 07:05:52;;;;;;;0.15;0.00;;;11.20;91.60;;;;;;4880496;28;88192;-71
2022/12/23 07:08:18;;;;;;;0.68;0.00;;;11.30;91.50;;;;;;4876685;28;86819;-72
2022/12/23 07:10:44;;;;;;;0.35;0.00;;;11.20;91.80;;;;;;4875373;28;86689;-72
2022/12/23 07:13:10;;;;;;;0.60;0.10;;;11.20;91.80;;;;;;4874416;28;86324;-72
2022/12/23 07:15:37;;;;;;;1.55;0.10;;;11.20;92.10;;;;;;4874902;28;87232;-72
2022/12/23 07:18:03;;;;;;;0.40;0.00;;;11.20;91.80;;;;;;4881226;28;86349;-72
2022/12/23 07:20:28;;;;;;;0.10;0.00;;;11.20;91.90;;;;;;4873138;28;86359;-72
2022/12/23 07:22:56;;;;;;;2.28;0.10;;;11.10;91.80;;;;;;4876597;28;86392;-72
2022/12/23 07:25:21;;;;;;;0.20;0.00;;;11.10;91.80;;;;;;4875274;28;87494;-72
2022/12/23 07:27:47;;;;;;;1.10;0.00;;;11.10;91.80;;;;;;4876588;28;87062;-72
2022/12/23 07:30:13;;;;;;;2.60;0.10;;;11.20;91.30;;;;;;4876297;28;87911;-72
2022/12/23 07:32:38;;;;;;;0.57;0.00;;;11.20;91.20;;;;;;4877707;28;86636;-72
2022/12/23 07:35:05;;;;;;;0.47;0.00;;;11.20;91.50;;;;;;4877068;28;87621;-72
2022/12/23 07:37:30;;;;;;;1.25;0.00;;;11.20;91.70;;;;;;4872635;28;87019;-72
2022/12/23 07:39:56;;;;;;;0.55;0.00;;;11.20;91.60;;;;;;4879286;28;86423;-72
2022/12/23 07:42:22;;;;;;;2.45;0.10;;;11.20;91.60;;;;;;4877734;28;87326;-72
2022/12/23 07:44:47;;;;;;;0.40;0.00;;;11.20;92.10;;;;;;4878790;28;86770;-72
2022/12/23 07:47:14;;;;;;;0.55;0.00;;;11.20;92.40;;;;;;4877133;28;89181;-72
2022/12/23 07:49:39;;;;;;;0.90;0.10;;;11.30;92.40;;;;;;4878982;28;87552;-72
2022/12/23 07:52:05;;;;;;;0.25;0.00;;;11.20;92.60;;;;;;4871623;28;86398;-72
2022/12/23 07:54:31;;;;;;;0.60;0.10;;;11.10;93.00;;;;;;4873589;28;87364;-72
2022/12/23 07:56:57;;;;;;;0.30;0.00;;;11.20;93.20;;;;;;4874212;28;86517;-72
2022/12/23 07:59:25;;;;;;;1.80;0.10;;;11.20;93.20;;;;;;4872087;28;86929;-72
2022/12/23 08:01:51;;;;;;;2.17;0.05;;;11.30;93.40;;;;;;4872567;28;86848;-72
2022/12/23 08:04:17;;;;;;;0.47;0.10;;;11.30;93.20;;;;;;4882284;28;86839;-72
2022/12/23 08:06:43;;;;;;;1.33;0.10;;;11.30;93.20;;;;;;4876867;28;86167;-72
2022/12/23 08:09:08;;;;;;;2.10;0.10;;;11.30;93.30;;;;;;4878193;28;87252;-72
2022/12/23 08:11:34;;;;;;;0.57;0.10;;;11.40;92.80;;;;;;4878000;28;86705;-74
2022/12/23 08:14:00;;;;;;;0.30;0.10;;;11.40;92.30;;;;;;4874850;28;88227;-72
2022/12/23 08:16:25;;;;;;;0.57;0.00;;;11.50;92.40;;;;;;4877675;28;87124;-72
2022/12/23 08:18:51;;;;;;;1.88;0.20;;;11.50;91.90;;;;;;4878731;28;86803;-72
2022/12/23 08:21:18;;;;;;;1.33;0.10;;;11.50;91.60;;;;;;4878610;28;86382;-73
2022/12/23 08:23:46;;;;;;;1.35;0.10;;;11.50;91.50;;;;;;4876311;28;87380;-73
2022/12/23 08:26:21;;;;;;;0.65;0.00;;;11.50;91.30;;;;;;4877639;28;87039;-73
2022/12/23 08:28:47;;;;;;;0.40;0.00;;;11.50;91.10;;;;;;4876142;28;86870;-72
2022/12/23 08:31:16;;;;;;;4.00;0.43;;;11.50;91.00;;;;;;4877133;28;85934;-72
2022/12/23 08:33:45;;;;;;;1.13;0.10;;;11.50;91.30;;;;;;4870122;28;87171;-72
2022/12/23 08:36:16;;;;;;;1.98;0.13;;;11.50;91.40;;;;;;4874984;28;86985;-72
2022/12/23 08:38:42;;;;;;;0.70;0.10;;;11.50;91.70;;;;;;4876443;28;88115;-72
2022/12/23 08:41:10;;;;;;;1.65;0.17;;;11.50;91.30;;;;;;4875563;28;86906;-72
2022/12/23 08:43:37;;;;;;;0.98;0.10;;;11.50;91.60;;;;;;4866658;28;87722;-72
2022/12/23 08:46:03;;;;;;;1.75;0.10;;;11.60;91.80;;;;;;4864894;28;87060;-71
2022/12/23 08:48:30;;;;;;;0.28;0.00;;;11.70;92.00;;;;;;4868565;28;86792;-72
2022/12/23 08:50:55;;;;;;;0.93;0.10;;;11.60;91.10;;;;;;4875326;28;86864;-72
2022/12/23 08:53:21;;;;;;;2.20;0.10;;;11.60;91.30;;;;;;4869415;28;86706;-72
2022/12/23 08:55:47;;;;;;;0.70;0.10;;;11.60;91.30;;;;;;4873958;28;86292;-72
2022/12/23 08:58:14;;;;;;;2.13;0.10;;;11.60;91.10;;;;;;4869043;28;87499;-72
2022/12/23 09:00:41;;;;;;;0.50;0.00;;;11.70;91.10;;;;;;4877173;28;87151;-72
2022/12/23 09:03:07;;;;;;;1.75;0.10;;;11.70;90.80;;;;;;4874203;28;88181;-72
2022/12/23 09:05:37;;;;;;;1.83;0.10;;;11.70;91.10;;;;;;4876724;28;87687;-72
2022/12/23 09:08:03;;;;;;;1.02;0.00;;;11.70;91.50;;;;;;4868428;28;87055;-72
2022/12/23 09:10:29;;;;;;;2.28;0.43;;;11.70;91.40;;;;;;4872106;28;86384;-72
2022/12/23 09:12:54;;;;;;;1.58;0.03;;;11.60;92.00;;;;;;4868206;28;86932;-72
2022/12/23 09:15:20;;;;;;;1.45;0.03;;;11.60;91.80;;;;;;4872088;28;86246;-72
2022/12/23 09:17:46;;;;;;;1.83;0.10;;;11.70;92.00;;;;;;4866996;28;86878;-72
2022/12/23 09:20:11;;;;;;;1.30;0.10;;;11.60;91.80;;;;;;4868292;28;86283;-72
2022/12/23 09:22:37;;;;;;;2.70;0.10;;;11.60;92.10;;;;;;4871498;28;87200;-72
2022/12/23 09:25:03;;;;;;;1.85;0.10;;;11.50;92.70;;;;;;4879039;28;87464;-72
2022/12/23 09:27:29;;;;;;;3.65;0.05;;;11.50;92.60;;;;;;4869426;28;88503;-72
2022/12/23 09:29:55;;;;;;;1.30;0.10;;;11.40;92.90;;;;;;4874678;28;86826;-72
2022/12/23 09:32:20;;;;;;;1.52;0.05;;;11.40;93.30;;;;;;4870996;28;87250;-72
2022/12/23 09:34:46;;;;;;;0.93;0.10;;;11.30;93.70;;;;;;4874306;28;86903;-72
2022/12/23 09:37:15;;;;;;;0.82;0.00;;;11.30;93.40;;;;;;4879314;28;87390;-72
2022/12/23 09:39:41;;;;;;;0.98;0.10;;;11.20;92.90;;;;;;4874744;28;86265;-72
2022/12/23 09:42:53;;;;;;;0.73;0.10;;;11.20;93.30;;;;;;4871513;28;86591;-72
2022/12/23 09:45:38;;;;;;;1.65;0.10;;;11.10;93.30;;;;;;4874784;28;86176;-72
2022/12/23 09:48:13;;;;;;;0.40;0.10;;;11.10;93.10;;;;;;4874504;28;86734;-72
2022/12/23 09:50:40;;;;;;;0.95;0.10;;;11.10;92.80;;;;;;4873968;28;86843;-72
2022/12/23 09:53:12;;;;;;;4.00;0.10;;;11.20;92.50;;;;;;4870735;28;88164;-72
2022/12/23 09:55:37;;;;;;;1.02;0.10;;;11.20;92.10;;;;;;4867631;28;88327;-72
2022/12/23 09:58:28;;;;;;;0.93;0.08;;;11.20;92.00;;;;;;4867809;28;86840;-72
2022/12/23 10:01:07;;;;;;;1.13;0.03;;;11.30;92.00;;;;;;4867109;28;86728;-72
2022/12/23 10:04:04;;;;;;;1.30;0.22;;;11.40;92.10;;;;;;4864760;28;86435;-72
2022/12/23 10:06:32;;;;;;;0.35;0.03;;;11.50;92.30;;;;;;4878047;28;87407;-72
2022/12/23 10:09:01;;;;;;;3.05;0.10;;;11.50;92.10;;;;;;4861282;28;86962;-72
2022/12/23 10:11:42;;;;;;;0.75;0.00;;;11.60;91.90;;;;;;4878777;28;86328;-72
2022/12/23 10:14:19;;;;;;;0.40;0.00;;;11.70;92.20;;;;;;4887616;28;86890;-72
2022/12/23 10:16:57;;;;;;;1.05;0.10;;;11.80;91.50;;;;;;4883302;28;87013;-72
2022/12/23 10:19:31;;;;;;;1.25;0.10;;;11.80;91.90;;;;;;4867066;28;87252;-72
2022/12/23 10:22:09;;;;;;;0.68;0.10;;;11.80;91.40;;;;;;4881283;28;86846;-72
2022/12/23 10:24:46;;;;;;;0.70;0.10;;;11.90;91.00;;;;;;4878750;28;87269;-72
2022/12/23 10:27:41;;;;;;;0.63;0.00;;;11.90;90.70;;;;;;4868540;28;86814;-72
2022/12/23 10:30:07;;;;;;;0.40;0.00;;;12.00;90.50;;;;;;4880545;28;86981;-72
2022/12/23 10:32:56;;;;;;;0.85;0.00;;;12.10;90.40;;;;;;4871555;28;86809;-72
2022/12/23 10:35:25;;;;;;;0.93;0.03;;;12.00;90.00;;;;;;4875452;28;86664;-72
2022/12/23 10:38:15;;;;;;;0.43;0.05;;;12.10;90.00;;;;;;4874557;28;86234;-72
2022/12/23 10:40:56;;;;;;;1.20;0.10;;;12.10;90.00;;;;;;4862001;28;88572;-72
2022/12/23 10:43:41;;;;;;;0.43;0.00;;;12.10;90.00;;;;;;4877533;28;86884;-72
2022/12/23 10:46:44;;;;;;;0.38;0.10;;;12.20;89.70;;;;;;4884442;28;88206;-72
2022/12/23 10:49:31;;;;;;;0.40;0.10;;;12.20;90.00;;;;;;4865738;28;88896;-72
2022/12/23 10:52:08;;;;;;;0.90;0.10;;;12.30;89.50;;;;;;4877457;28;86712;-72
2022/12/23 10:54:36;;;;;;;0.52;0.10;;;12.30;88.90;;;;;;4885164;28;87149;-72
2022/12/23 10:57:04;;;;;;;0.98;0.10;;;12.40;89.20;;;;;;4877402;28;87284;-72
2022/12/23 10:59:32;;;;;;;0.65;0.10;;;12.40;89.50;;;;;;4868761;28;87075;-72
2022/12/23 11:02:13;;;;;;;0.57;0.10;;;12.40;89.60;;;;;;4882927;28;87221;-72
2022/12/23 11:04:46;;;;;;;0.65;0.10;;;12.40;90.00;;;;;;4877765;28;85989;-72
2022/12/23 11:07:19;;;;;;;0.80;0.10;;;12.30;90.30;;;;;;4884133;28;86621;-72
2022/12/23 11:10:01;;;;;;;0.50;0.10;;;12.30;90.40;;;;;;4872085;28;86955;-72
2022/12/23 11:12:48;;;;;;;0.40;0.00;;;12.20;90.30;;;;;;4874465;28;88249;-72
2022/12/23 11:15:25;;;;;;;1.63;0.10;;;12.20;90.10;;;;;;4869420;28;86846;-72
2022/12/23 11:18:00;;;;;;;0.50;0.10;;;12.10;90.50;;;;;;4874499;28;87151;-72
2022/12/23 11:20:25;;;;;;;1.15;0.15;;;12.10;90.20;;;;;;4874076;28;86923;-72
2022/12/23 11:22:54;;;;;;;2.00;0.20;;;12.10;90.90;;;;;;4873853;28;86842;-72
2022/12/23 11:25:39;;;;;;;2.58;0.10;;;12.10;90.70;;;;;;4876456;28;86962;-72
2022/12/23 11:28:15;;;;;;;1.30;0.15;;;12.10;90.60;;;;;;4876032;28;86937;-72
2022/12/23 11:30:52;;;;;;;0.52;0.10;;;12.00;90.80;;;;;;4877276;28;86347;-72
2022/12/23 11:33:39;;;;;;;5.05;0.22;;;12.00;90.60;;;;;;4875565;28;86710;-72
2022/12/23 11:36:26;;;;;;;3.90;0.10;;;12.00;91.50;;;;;;4873274;28;86320;-72
2022/12/23 11:39:01;;;;;;;2.47;0.10;;;12.00;91.90;;;;;;4872412;28;88434;-72
2022/12/23 11:41:29;;;;;;;0.73;0.10;;;11.90;91.90;;;;;;4877709;28;87188;-72
2022/12/23 11:44:03;;;;;;;2.28;0.20;;;11.80;91.70;;;;;;4877399;28;86874;-72
2022/12/23 11:46:32;;;;;;;1.25;0.10;;;11.80;92.30;;;;;;4875235;28;86769;-72
2022/12/23 11:49:16;;;;;;;1.65;0.30;;;11.80;92.60;;;;;;4876613;28;87286;-72
2022/12/23 11:51:44;;;;;;;2.33;0.10;;;11.80;92.80;;;;;;4873791;28;87562;-72
2022/12/23 11:54:16;;;;;;;1.27;0.20;;;11.90;92.30;;;;;;4873153;28;86863;-72
2022/12/23 11:56:43;;;;;;;2.63;0.30;;;11.90;92.30;;;;;;4867951;28;86961;-72
2022/12/23 11:59:27;;;;;;;3.08;0.30;;;11.90;92.50;;;;;;4870940;28;87080;-72
2022/12/23 12:01:56;;;;;;;3.13;0.38;;;11.80;92.50;;;;;;4869667;28;87191;-72
2022/12/23 12:04:24;;;;;;;4.35;0.70;;;11.90;92.80;;;;;;4872554;28;87345;-72
2022/12/23 12:06:51;;;;;;;2.28;0.30;;;11.90;92.10;;;;;;4872866;28;89683;-72
2022/12/23 12:09:17;;;;;;;1.40;0.30;;;11.90;92.20;;;;;;4871902;28;87229;-72
2022/12/23 12:11:48;;;;;;;1.17;0.10;;;11.80;92.20;;;;;;4873265;28;87129;-71
2022/12/23 12:14:28;;;;;;;2.25;0.30;;;11.80;92.10;;;;;;4875106;28;87061;-71
2022/12/23 12:17:04;;;;;;;0.95;0.10;;;11.80;92.60;;;;;;4875538;28;87074;-71
2022/12/23 12:19:50;;;;;;;1.00;0.10;;;11.90;92.10;;;;;;4870371;28;88253;-71
2022/12/23 12:22:43;;;;;;;1.20;0.40;;;11.90;91.70;;;;;;4871878;28;86794;-70
2022/12/23 12:25:41;;;;;;;1.30;0.20;;;12.10;91.20;;;;;;4875630;28;86903;-70
2022/12/23 12:28:15;;;;;;;2.28;0.20;;;12.20;90.90;;;;;;4867934;28;87009;-71
2022/12/23 12:30:50;;;;;;;1.48;0.40;;;12.20;90.60;;;;;;4870189;28;88374;-71
2022/12/23 12:33:24;;;;;;;0.30;0.03;;;12.40;90.90;;;;;;4873503;28;87597;-70
2022/12/23 12:36:04;;;;;;;4.68;0.10;;;12.50;90.40;;;;;;4877160;28;87034;-69
2022/12/23 12:38:32;;;;;;;0.73;0.00;;;12.50;90.60;;;;;;4871563;28;86860;-70
2022/12/23 12:41:15;;;;;;;0.90;0.08;;;12.60;90.10;;;;;;4873658;28;89048;-71
2022/12/23 12:44:00;;;;;;;0.98;0.10;;;12.60;90.20;;;;;;4873574;28;87278;-70
2022/12/23 12:46:54;;;;;;;0.57;0.10;;;12.60;90.40;;;;;;4870771;28;86841;-70
2022/12/23 12:49:37;;;;;;;1.80;0.30;;;12.50;90.90;;;;;;4873586;28;85941;-70
2022/12/23 12:52:12;;;;;;;0.93;0.00;;;12.40;90.90;;;;;;4873109;28;86424;-70
2022/12/23 12:55:12;;;;;;;2.50;0.10;;;12.40;90.80;;;;;;4873370;28;87057;-71
2022/12/23 12:57:39;;;;;;;0.40;0.10;;;12.50;90.90;;;;;;4875192;28;87656;-70
2022/12/23 13:00:17;;;;;;;0.68;0.00;;;12.50;91.10;;;;;;4869945;28;86858;-71
2022/12/23 13:03:08;;;;;;;0.55;0.10;;;12.50;91.10;;;;;;4864823;28;88968;-71
2022/12/23 13:05:37;;;;;;;1.83;0.10;;;12.60;91.40;;;;;;4874690;28;86983;-70
2022/12/23 13:08:29;;;;;;;0.45;0.00;;;12.60;91.20;;;;;;4879391;28;86914;-71
2022/12/23 13:11:12;;;;;;;2.33;0.10;;;12.60;91.30;;;;;;4866249;28;86573;-71
2022/12/23 13:13:50;;;;;;;0.40;0.00;;;12.60;91.10;;;;;;4876624;28;86610;-70
2022/12/23 13:16:34;;;;;;;0.60;0.10;;;12.60;90.80;;;;;;4874147;28;88469;-71
2022/12/23 13:19:32;;;;;;;0.50;0.10;;;12.60;91.30;;;;;;4876113;28;86280;-70
2022/12/23 13:22:02;;;;;;;0.68;0.20;;;12.60;91.10;;;;;;4874610;28;86807;-70
2022/12/23 13:24:51;;;;;;;1.33;0.10;;;12.40;91.70;;;;;;4876705;28;88427;-71
2022/12/23 13:27:40;;;;;;;1.40;0.15;;;12.40;92.30;;;;;;4878114;28;88518;-71
2022/12/23 13:30:16;;;;;;;;;;;12.30;92.30;;;;;;4876949;28;86658;-71
2022/12/23 13:32:48;;;;;;;0.52;0.00;;;12.30;93.10;;;;;;4876260;28;86778;-71
2022/12/23 13:35:50;;;;;;;0.60;0.10;;;12.30;92.70;;;;;;4876786;28;87163;-70
2022/12/23 13:38:28;;;;;;;;;;;12.40;92.90;;;;;;4876402;28;87252;-71
2022/12/23 13:41:24;;;;;;;4.15;0.10;;;12.50;92.90;;;;;;4879777;28;86261;-70
2022/12/23 13:44:01;;;;;;;1.25;0.08;;;12.50;93.20;;;;;;4869005;28;85872;-70
2022/12/23 13:46:30;;;;;;;3.13;0.10;;;12.50;93.40;;;;;;4875795;28;87235;-71
2022/12/23 13:49:06;;;;;;;3.35;0.13;;;12.50;93.30;;;;;;4878583;28;86350;-70
2022/12/23 13:51:42;;;;;;;0.82;0.10;;;12.50;93.10;;;;;;4877939;28;87571;-70
2022/12/23 13:54:35;;;;;;;6.32;1.58;;;12.40;92.70;;;;;;4872472;28;86997;-71
2022/12/23 13:57:29;;;;;;;4.57;1.17;;;12.50;92.80;;;;;;4878825;28;87073;-70
2022/12/23 14:00:01;;;;;;;3.08;0.10;;;12.50;93.20;;;;;;4863965;28;86921;-70
2022/12/23 14:02:36;;;;;;;2.25;0.20;;;12.40;92.80;;;;;;4879532;28;86742;-71
2022/12/23 14:05:04;;;;;;;0.93;0.05;;;12.40;92.90;;;;;;4869409;28;88010;-71
2022/12/23 14:07:32;;;;;;;0.73;0.10;;;12.40;92.50;;;;;;4874805;28;89636;-71
2022/12/23 14:10:09;;;;;;;2.95;0.30;;;12.50;92.40;;;;;;4872975;28;86365;-71
2022/12/23 14:12:41;;;;;;;1.65;0.10;;;12.50;92.80;;;;;;4873549;28;87810;-71
2022/12/23 14:15:21;;;;;;;2.58;0.20;;;12.50;92.70;;;;;;4879987;28;86878;-71
2022/12/23 14:18:13;;;;;;;0.77;0.17;;;12.50;92.70;;;;;;4874731;28;88671;-71
2022/12/23 14:21:11;;;;;;;2.55;0.10;;;12.50;92.60;;;;;;4839937;28;87860;-70
2022/12/23 14:23:58;;;;;;;2.40;0.10;;;12.60;92.70;;;;;;4875195;28;86686;-70
2022/12/23 14:26:37;;;;;;;2.25;0.20;;;12.50;92.90;;;;;;4877209;28;86797;-71
2022/12/23 14:29:28;;;;;;;2.08;0.20;;;12.60;92.90;;;;;;4880119;28;87173;-71
2022/12/23 14:31:56;;;;;;;0.95;0.00;;;12.50;93.30;;;;;;4881422;28;87005;-71
2022/12/23 14:34:24;;;;;;;0.50;0.10;;;12.50;93.20;;;;;;4884247;28;86976;-71
2022/12/23 14:37:23;;;;;;;1.23;0.20;;;12.50;93.50;;;;;;4880825;28;85970;-71
2022/12/23 14:39:50;;;;;;;3.85;0.55;;;12.50;93.20;;;;;;4879084;28;86831;-70
2022/12/23 14:42:40;;;;;;;2.00;0.25;;;12.50;93.40;;;;;;4878574;28;86956;-71
2022/12/23 14:45:34;;;;;;;1.13;0.05;;;12.60;93.40;;;;;;4871829;28;87872;-71
2022/12/23 14:48:02;;;;;;;1.42;0.13;;;12.60;93.20;;;;;;4871702;28;87404;-71
2022/12/23 14:50:37;;;;;;;1.52;0.22;;;12.60;93.30;;;;;;4878338;28;86856;-71
2022/12/23 14:53:20;;;;;;;0.30;0.10;;;12.60;92.90;;;;;;4874408;28;86851;-71
2022/12/23 14:55:47;;;;;;;1.70;0.10;;;12.60;93.00;;;;;;4874694;28;86763;-71
2022/12/23 14:58:36;;;;;;;2.25;0.35;;;12.60;93.20;;;;;;4876095;28;86931;-71
2022/12/23 15:01:23;;;;;;;1.45;0.15;;;12.60;93.20;;;;;;4875469;28;87301;-70
2022/12/23 15:03:50;;;;;;;1.65;0.00;;;12.60;93.60;;;;;;4851532;28;86643;-71
2022/12/23 15:06:40;;;;;;;2.17;0.20;;;12.60;93.40;;;;;;4877765;28;87428;-68
2022/12/23 15:09:08;;;;;;;3.53;0.60;;;12.70;95.50;;;;;;4876782;28;86821;-71
2022/12/23 15:11:35;;;;;;;0.70;0.00;;;13.50;95.10;;;;;;4872222;28;88217;-71
2022/12/23 15:14:14;;;;;;;2.95;0.35;;;13.80;91.40;;;;;;4876004;28;87301;-71
2022/12/23 15:16:43;;;;;;;2.38;0.22;;;13.30;91.80;;;;;;4873846;28;86753;-71
2022/12/23 15:19:27;;;;;;;1.83;0.30;;;13.00;92.90;;;;;;4878558;28;87699;-71
2022/12/23 15:22:10;;;;;;;2.72;0.10;;;12.70;93.60;;;;;;4879125;28;87359;-71
2022/12/23 15:24:39;;;;;;;2.20;0.20;;;12.60;94.10;;;;;;4876606;28;86955;-71
2022/12/23 15:27:05;;;;;;;0.68;0.08;;;12.60;93.60;;;;;;4875879;28;86924;-71
2022/12/23 15:29:31;;;;;;;4.00;0.10;;;12.50;93.50;;;;;;4882910;28;85951;-71
2022/12/23 15:31:58;;;;;;;1.33;0.03;;;12.50;93.90;;;;;;4876873;28;87264;-71
2022/12/23 15:34:30;;;;;;;2.45;0.10;;;12.50;93.90;;;;;;4879810;28;87142;-71
2022/12/23 15:36:57;;;;;;;1.85;0.10;;;12.50;93.50;;;;;;4872816;28;88305;-71
2022/12/23 15:39:38;;;;;;;3.70;0.90;;;12.50;93.80;;;;;;4878972;28;86795;-71
2022/12/23 15:42:18;;;;;;;2.42;0.25;;;12.50;94.20;;;;;;4878022;28;87336;-71
2022/12/23 15:44:43;;;;;;;1.30;0.10;;;12.40;94.10;;;;;;4878246;28;87164;-71
2022/12/23 15:47:37;;;;;;;1.75;0.10;;;12.40;94.00;;;;;;4873349;28;86745;-71
2022/12/23 15:50:14;;;;;;;1.95;0.43;;;12.40;94.00;;;;;;4879808;28;86948;-71
2022/12/23 15:52:41;;;;;;;1.63;0.22;;;12.50;93.70;;;;;;4880095;28;87286;-72
2022/12/23 15:55:19;;;;;;;2.67;0.28;;;12.50;94.10;;;;;;4878435;28;86161;-71
2022/12/23 15:57:49;;;;;;;1.80;0.30;;;12.50;94.40;;;;;;4868699;28;86827;-73
2022/12/23 16:00:49;;;;;;;3.03;0.20;;;12.50;94.20;;;;;;4876753;28;88215;-71
2022/12/23 16:03:25;;;;;;;5.03;0.30;;;12.40;94.20;;;;;;4873624;28;89094;-70
2022/12/23 16:05:51;;;;;;;0.85;0.13;;;12.40;94.20;;;;;;4873987;28;87300;-71
2022/12/23 16:08:16;;;;;;;0.63;0.20;;;12.50;93.90;;;;;;4874459;28;87541;-70
2022/12/23 16:11:11;;;;;;;3.33;0.90;;;12.50;93.50;;;;;;4882284;28;86162;-69
2022/12/23 16:13:36;;;;;;;0.52;0.10;;;12.50;94.10;;;;;;4868968;28;87282;-71
2022/12/23 16:16:41;;;;;;;4.55;0.13;;;12.50;93.40;;;;;;4885779;28;87525;-71
2022/12/23 16:19:35;;;;;;;1.67;0.20;;;12.50;93.50;;;;;;4873827;28;86655;-71
2022/12/23 16:22:13;;;;;;;1.60;0.20;;;12.50;93.60;;;;;;4878295;28;86307;-71
2022/12/23 16:25:08;;;;;;;0.60;0.10;;;12.50;93.30;;;;;;4879085;28;86756;-71
2022/12/23 16:27:37;;;;;;;1.58;0.15;;;12.50;93.30;;;;;;4864699;28;87287;-70
2022/12/23 16:30:21;;;;;;;0.95;0.10;;;12.50;93.50;;;;;;4876481;28;87840;-70
2022/12/23 16:33:00;;;;;;;1.27;0.17;;;12.50;93.70;;;;;;4869486;28;87458;-71
2022/12/23 16:35:36;;;;;;;1.83;0.10;;;12.50;93.50;;;;;;4885291;28;87037;-70
2022/12/23 16:38:17;;;;;;;1.10;0.30;;;12.50;93.50;;;;;;4879227;28;86967;-71
2022/12/23 16:40:45;;;;;;;0.90;0.20;;;12.60;93.40;;;;;;4881294;28;86834;-70
2022/12/23 16:43:11;;;;;;;4.90;0.20;;;12.70;93.00;;;;;;4878834;28;86750;-70
2022/12/23 16:45:37;;;;;;;0.93;0.10;;;12.70;92.70;;;;;;4881606;28;87238;-71
2022/12/23 16:48:14;;;;;;;2.13;0.10;;;12.80;92.50;;;;;;4881254;28;86559;-71
2022/12/23 16:50:40;;;;;;;1.40;0.28;;;12.90;92.60;;;;;;4879685;28;86871;-70
2022/12/23 16:53:05;;;;;;;0.57;0.10;;;13.00;92.30;;;;;;4882047;28;87105;-71
2022/12/23 16:55:31;;;;;;;0.50;0.10;;;13.00;91.70;;;;;;4872860;28;87867;-71
2022/12/23 16:57:57;;;;;;;1.00;0.13;;;13.00;91.40;;;;;;4868554;28;88250;-71
2022/12/23 17:00:23;;;;;;;1.83;0.10;;;13.10;91.60;;;;;;4875799;28;86982;-72
2022/12/23 17:02:51;;;;;;;1.00;0.10;;;13.10;91.40;;;;;;4871187;28;88139;-71